createdAt,value
2019-05-29T00:01:21.458Z,95.70
2019-05-29T00:03:49.046Z,95.70
2019-05-29T00:06:18.606Z,95.70
2019-05-29T00:08:47.723Z,95.90
2019-05-29T00:11:18.379Z,95.80
2019-05-29T00:13:47.259Z,95.30
2019-05-29T00:16:16.139Z,95.20
2019-05-29T00:18:45.671Z,94.80
2019-05-29T00:21:14.700Z,94.90
2019-05-29T00:23:43.966Z,95.40
2019-05-29T00:26:12.794Z,95.30
2019-05-29T00:28:41.662Z,95.30
2019-05-29T00:31:10.488Z,95.50
2019-05-29T00:33:39.333Z,95.80
2019-05-29T00:36:08.296Z,96.00
2019-05-29T00:38:37.166Z,96.10
2019-05-29T00:41:06.755Z,96.30
2019-05-29T00:43:35.829Z,96.40
2019-05-29T00:46:04.656Z,96.50
2019-05-29T00:48:33.530Z,96.60
2019-05-29T00:51:02.382Z,96.50
2019-05-29T00:53:31.256Z,96.60
2019-05-29T00:56:00.087Z,96.70
2019-05-29T00:58:28.901Z,96.90
2019-05-29T01:00:57.858Z,96.80
2019-05-29T01:03:26.695Z,96.70
2019-05-29T01:05:55.596Z,96.80
2019-05-29T01:08:24.428Z,96.80
2019-05-29T01:10:53.258Z,96.90
2019-05-29T01:13:22.148Z,97.10
2019-05-29T01:15:50.964Z,96.90
2019-05-29T01:18:20.067Z,96.60
2019-05-29T01:20:48.868Z,96.80
2019-05-29T01:23:18.347Z,96.60
2019-05-29T01:25:47.449Z,96.40
2019-05-29T01:28:16.883Z,96.30
2019-05-29T01:30:45.741Z,96.40
2019-05-29T01:33:17.503Z,96.40
2019-05-29T01:35:45.093Z,96.50
2019-05-29T01:38:15.123Z,96.70
2019-05-29T01:40:44.527Z,96.60
2019-05-29T01:43:13.411Z,96.50
2019-05-29T01:45:42.271Z,96.40
2019-05-29T01:48:11.077Z,96.40
2019-05-29T01:50:39.951Z,96.20
2019-05-29T01:53:08.790Z,96.30
2019-05-29T01:55:37.682Z,96.40
2019-05-29T01:58:06.507Z,96.20
2019-05-29T02:00:35.345Z,95.20
2019-05-29T02:03:04.234Z,95.60
2019-05-29T02:05:33.055Z,95.60
2019-05-29T02:08:01.925Z,94.70
2019-05-29T02:10:30.760Z,94.70
2019-05-29T02:12:59.600Z,94.30
2019-05-29T02:15:33.545Z,93.90
2019-05-29T02:17:58.946Z,93.70
2019-05-29T02:20:27.850Z,94.00
2019-05-29T02:22:56.685Z,93.50
2019-05-29T02:25:26.346Z,93.40
2019-05-29T02:27:55.353Z,93.30
2019-05-29T02:30:27.766Z,93.20
2019-05-29T02:32:54.817Z,93.10
2019-05-29T02:35:24.698Z,93.10
2019-05-29T02:37:54.132Z,93.20
2019-05-29T02:40:24.094Z,93.10
2019-05-29T02:42:53.459Z,93.20
2019-05-29T02:45:23.823Z,93.20
2019-05-29T02:47:52.824Z,93.20
2019-05-29T02:50:22.204Z,93.20
2019-05-29T02:52:51.764Z,93.40
2019-05-29T02:55:20.829Z,93.40
2019-05-29T02:57:51.257Z,93.60
2019-05-29T03:00:23.277Z,93.50
2019-05-29T03:02:52.156Z,93.30
2019-05-29T03:05:21.939Z,93.20
2019-05-29T03:07:50.911Z,93.40
2019-05-29T03:10:20.117Z,93.40
2019-05-29T03:12:48.952Z,93.40
2019-05-29T03:15:18.303Z,93.60
2019-05-29T03:17:47.177Z,93.30
2019-05-29T03:20:15.994Z,93.90
2019-05-29T03:22:44.873Z,93.60
2019-05-29T03:25:13.711Z,93.40
2019-05-29T03:27:42.540Z,93.30
2019-05-29T03:30:11.437Z,93.30
2019-05-29T03:32:47.306Z,93.70
2019-05-29T03:35:10.833Z,93.60
2019-05-29T03:37:39.616Z,93.90
2019-05-29T03:40:08.867Z,93.50
2019-05-29T03:42:38.972Z,93.80
2019-05-29T03:45:08.653Z,93.80
2019-05-29T03:47:37.587Z,93.80
2019-05-29T03:50:08.807Z,93.80
2019-05-29T03:52:38.820Z,94.20
2019-05-29T03:55:08.118Z,94.60
2019-05-29T03:57:38.203Z,94.80
2019-05-29T04:00:09.050Z,95.00
2019-05-29T04:02:38.393Z,94.50
2019-05-29T04:05:08.853Z,94.40
2019-05-29T04:07:38.336Z,94.30
2019-05-29T04:10:08.237Z,94.00
2019-05-29T04:12:38.040Z,94.00
2019-05-29T04:15:08.744Z,94.10
2019-05-29T04:17:39.155Z,94.10
2019-05-29T04:20:08.432Z,93.90
2019-05-29T04:22:43.098Z,94.50
2019-05-29T04:25:12.579Z,94.60
2019-05-29T04:27:43.595Z,95.10
2019-05-29T04:30:12.770Z,95.40
2019-05-29T04:32:41.627Z,95.30
2019-05-29T04:35:10.743Z,95.80
2019-05-29T04:37:40.116Z,96.00
2019-05-29T04:40:09.891Z,96.10
2019-05-29T04:42:40.071Z,96.40
2019-05-29T04:45:09.437Z,96.30
2019-05-29T04:47:39.584Z,96.40
2019-05-29T04:50:10.227Z,96.50
2019-05-29T04:52:40.303Z,96.50
2019-05-29T04:55:09.628Z,96.50
2019-05-29T04:57:39.245Z,96.70
2019-05-29T05:00:09.484Z,96.90
2019-05-29T05:02:39.445Z,97.00
2019-05-29T05:05:08.456Z,96.80
2019-05-29T05:07:37.484Z,96.70
2019-05-29T05:10:09.415Z,96.90
2019-05-29T05:12:40.097Z,96.90
2019-05-29T05:15:11.186Z,96.90
2019-05-29T05:17:40.264Z,97.00
2019-05-29T05:20:10.149Z,96.90
2019-05-29T05:22:40.975Z,96.60
2019-05-29T05:25:12.233Z,96.70
2019-05-29T05:27:41.136Z,96.90
2019-05-29T05:30:13.602Z,96.80
2019-05-29T05:32:42.675Z,96.90
2019-05-29T05:35:14.986Z,96.20
2019-05-29T05:37:43.783Z,96.60
2019-05-29T05:40:13.069Z,96.50
2019-05-29T05:42:43.875Z,96.40
2019-05-29T05:45:15.645Z,96.50
2019-05-29T05:47:57.064Z,96.40
2019-05-29T05:50:17.828Z,96.50
2019-05-29T05:52:46.749Z,96.60
2019-05-29T05:55:16.221Z,96.40
2019-05-29T05:57:47.671Z,96.40
2019-05-29T06:00:19.453Z,96.00
2019-05-29T06:02:51.586Z,96.70
2019-05-29T06:05:20.240Z,96.00
2019-05-29T06:07:49.061Z,95.40
2019-05-29T06:10:17.926Z,95.80
2019-05-29T06:12:46.774Z,96.00
2019-05-29T06:15:15.718Z,95.50
2019-05-29T06:18:04.710Z,95.60
2019-05-29T06:20:15.265Z,94.90
2019-05-29T06:22:44.142Z,94.90
2019-05-29T06:25:13.107Z,95.50
2019-05-29T06:27:43.215Z,94.40
2019-05-29T06:30:14.038Z,94.90
2019-05-29T06:32:43.614Z,94.10
2019-05-29T06:35:12.651Z,94.10
2019-05-29T06:37:41.810Z,94.60
2019-05-29T06:40:10.958Z,94.60
2019-05-29T06:42:39.932Z,94.30
2019-05-29T06:45:09.341Z,93.50
2019-05-29T06:47:40.739Z,93.60
2019-05-29T06:50:09.855Z,93.60
2019-05-29T06:52:39.491Z,93.30
2019-05-29T06:55:08.460Z,93.60
2019-05-29T06:57:38.142Z,94.00
2019-05-29T07:00:07.870Z,94.20
2019-05-29T07:02:36.692Z,94.50
2019-05-29T07:05:06.815Z,94.20
2019-05-29T07:07:36.042Z,94.70
2019-05-29T07:10:06.729Z,93.70
2019-05-29T07:12:36.333Z,94.10
2019-05-29T07:15:09.167Z,94.50
2019-05-29T07:17:38.592Z,94.70
2019-05-29T07:20:08.685Z,94.50
2019-05-29T07:22:38.754Z,93.80
2019-05-29T07:25:08.962Z,94.70
2019-05-29T07:27:38.827Z,92.80
2019-05-29T07:30:08.267Z,92.70
2019-05-29T07:32:38.675Z,93.50
2019-05-29T07:35:07.750Z,93.40
2019-05-29T07:37:37.679Z,93.50
2019-05-29T07:40:08.540Z,93.80
2019-05-29T07:42:39.438Z,91.50
2019-05-29T07:45:09.682Z,91.90
2019-05-29T07:47:38.536Z,92.60
2019-05-29T07:50:08.554Z,91.70
2019-05-29T07:52:38.502Z,91.70
2019-05-29T07:55:08.688Z,91.70
2019-05-29T07:57:38.818Z,90.60
2019-05-29T08:00:08.694Z,90.40
2019-05-29T08:02:38.956Z,90.20
2019-05-29T08:05:08.715Z,88.90
2019-05-29T08:07:37.528Z,89.40
2019-05-29T08:10:09.462Z,90.40
2019-05-29T08:12:42.237Z,90.10
2019-05-29T08:15:09.070Z,90.70
2019-05-29T08:17:37.887Z,90.80
2019-05-29T08:20:08.237Z,90.60
2019-05-29T08:22:37.105Z,90.10
2019-05-29T08:25:06.536Z,90.60
2019-05-29T08:27:35.409Z,90.70
2019-05-29T08:30:07.149Z,89.40
2019-05-29T08:32:36.033Z,88.70
2019-05-29T08:35:06.389Z,89.50
2019-05-29T08:37:35.228Z,90.00
2019-05-29T08:40:07.195Z,90.10
2019-05-29T08:42:36.036Z,90.10
2019-05-29T08:45:07.021Z,90.20
2019-05-29T08:47:35.859Z,89.90
2019-05-29T08:50:18.053Z,87.60
2019-05-29T08:52:37.399Z,88.40
2019-05-29T08:55:06.531Z,88.00
2019-05-29T08:57:35.433Z,88.60
2019-05-29T09:00:08.791Z,86.70
2019-05-29T09:02:37.633Z,86.20
2019-05-29T09:05:07.477Z,86.50
2019-05-29T09:07:36.309Z,86.50
2019-05-29T09:10:08.117Z,86.60
2019-05-29T09:13:04.398Z,85.60
2019-05-29T09:15:26.764Z,86.70
2019-05-29T09:17:55.599Z,88.70
2019-05-29T09:20:37.101Z,88.30
2019-05-29T09:22:54.980Z,88.20
2019-05-29T09:25:23.826Z,88.00
2019-05-29T09:27:52.691Z,85.60
2019-05-29T09:30:21.800Z,84.10
2019-05-29T09:32:52.976Z,81.60
2019-05-29T09:35:22.036Z,83.80
2019-05-29T09:37:51.867Z,82.50
2019-05-29T09:40:21.280Z,84.50
2019-05-29T09:42:50.135Z,82.80
2019-05-29T09:45:19.627Z,84.20
2019-05-29T09:47:48.838Z,83.50
2019-05-29T09:50:21.007Z,86.90
2019-05-29T09:52:49.027Z,86.50
2019-05-29T09:55:18.099Z,85.90
2019-05-29T09:57:46.897Z,87.80
2019-05-29T10:00:17.555Z,85.70
2019-05-29T10:02:46.381Z,82.10
2019-05-29T10:05:16.293Z,83.50
2019-05-29T10:07:45.124Z,85.20
2019-05-29T10:10:15.177Z,85.80
2019-05-29T10:12:44.031Z,86.30
2019-05-29T10:15:13.353Z,85.10
2019-05-29T10:17:42.321Z,81.90
2019-05-29T10:20:13.665Z,84.50
2019-05-29T10:22:42.494Z,86.10
2019-05-29T10:25:11.889Z,87.80
2019-05-29T10:27:40.727Z,85.70
2019-05-29T10:30:10.519Z,83.00
2019-05-29T10:32:39.362Z,84.10
2019-05-29T10:35:09.012Z,86.90
2019-05-29T10:37:39.654Z,87.90
2019-05-29T10:40:09.752Z,85.00
2019-05-29T10:42:38.639Z,82.80
2019-05-29T10:45:08.668Z,84.50
2019-05-29T10:47:37.501Z,85.00
2019-05-29T10:50:08.646Z,84.60
2019-05-29T10:52:37.539Z,82.60
2019-05-29T10:55:07.413Z,83.90
2019-05-29T10:57:36.249Z,83.90
2019-05-29T11:00:09.479Z,82.20
2019-05-29T11:02:38.348Z,83.30
2019-05-29T11:05:07.161Z,82.20
2019-05-29T11:07:36.055Z,80.60
2019-05-29T11:10:07.489Z,82.70
2019-05-29T11:12:39.326Z,81.60
2019-05-29T11:15:20.870Z,82.50
2019-05-29T11:17:38.410Z,83.30
2019-05-29T11:20:09.684Z,81.30
2019-05-29T11:22:38.507Z,79.30
2019-05-29T11:25:22.555Z,79.20
2019-05-29T11:27:41.621Z,80.70
2019-05-29T11:30:12.271Z,81.00
2019-05-29T11:32:41.547Z,79.30
2019-05-29T11:35:12.088Z,79.90
2019-05-29T11:37:40.895Z,78.20
2019-05-29T11:40:10.616Z,78.70
2019-05-29T11:42:39.429Z,79.20
2019-05-29T11:45:12.815Z,77.30
2019-05-29T11:47:41.651Z,77.30
2019-05-29T11:50:19.331Z,76.70
2019-05-29T11:52:43.702Z,78.10
2019-05-29T11:55:13.203Z,75.90
2019-05-29T11:57:42.103Z,75.60
2019-05-29T12:00:19.492Z,76.10
2019-05-29T12:02:44.402Z,78.70
2019-05-29T12:05:14.813Z,78.70
2019-05-29T12:07:43.673Z,74.60
2019-05-29T12:10:13.195Z,75.30
2019-05-29T12:12:41.997Z,75.90
2019-05-29T12:15:16.054Z,78.10
2019-05-29T12:17:41.661Z,78.40
2019-05-29T12:20:26.774Z,80.30
2019-05-29T12:23:06.922Z,73.70
2019-05-29T12:25:13.658Z,73.60
2019-05-29T12:27:42.472Z,75.30
2019-05-29T12:30:13.169Z,75.20
2019-05-29T12:32:41.999Z,77.30
2019-05-29T12:35:11.985Z,78.40
2019-05-29T12:37:40.854Z,80.10
2019-05-29T12:40:11.273Z,79.70
2019-05-29T12:42:44.495Z,76.80
2019-05-29T12:45:11.018Z,78.10
2019-05-29T12:47:39.869Z,80.30
2019-05-29T12:50:13.008Z,79.20
2019-05-29T12:52:42.166Z,79.00
2019-05-29T12:55:11.474Z,80.70
2019-05-29T12:57:40.387Z,77.10
2019-05-29T13:00:17.639Z,79.50
2019-05-29T13:02:46.624Z,78.90
2019-05-29T13:05:20.435Z,79.40
2019-05-29T13:07:47.887Z,78.70
2019-05-29T13:10:29.923Z,79.20
2019-05-29T13:12:48.430Z,77.90
2019-05-29T13:15:18.685Z,79.50
2019-05-29T13:17:47.504Z,76.60
2019-05-29T13:20:21.814Z,76.40
2019-05-29T13:22:46.916Z,77.30
2019-05-29T13:25:15.754Z,78.90
2019-05-29T13:27:44.614Z,80.00
2019-05-29T13:30:16.494Z,76.60
2019-05-29T13:32:45.326Z,75.10
2019-05-29T13:35:14.706Z,78.30
2019-05-29T13:37:43.531Z,79.00
2019-05-29T13:40:14.409Z,77.80
2019-05-29T13:42:43.248Z,76.70
2019-05-29T13:45:18.337Z,77.40
2019-05-29T13:47:43.789Z,78.70
2019-05-29T13:50:13.098Z,79.50
2019-05-29T13:52:42.052Z,74.90
2019-05-29T13:55:12.320Z,73.60
2019-05-29T13:57:41.143Z,73.70
2019-05-29T14:00:33.808Z,77.20
2019-05-29T14:02:44.244Z,79.50
2019-05-29T14:05:15.138Z,78.70
2019-05-29T14:07:44.008Z,76.10
2019-05-29T14:10:13.609Z,77.60
2019-05-29T14:12:42.463Z,74.50
2019-05-29T14:15:14.179Z,74.10
2019-05-29T14:17:43.112Z,74.10
2019-05-29T14:20:13.123Z,72.60
2019-05-29T14:22:42.045Z,71.20
2019-05-29T14:25:11.790Z,71.20
2019-05-29T14:27:40.650Z,71.90
2019-05-29T14:30:13.777Z,72.20
2019-05-29T14:32:42.231Z,74.10
2019-05-29T14:35:13.371Z,72.50
2019-05-29T14:37:44.261Z,73.80
2019-05-29T14:40:14.837Z,72.30
2019-05-29T14:42:43.794Z,71.80
2019-05-29T14:45:12.771Z,71.70
2019-05-29T14:47:41.669Z,73.60
2019-05-29T14:50:11.247Z,71.00
2019-05-29T14:52:41.292Z,70.00
2019-05-29T14:55:16.179Z,71.40
2019-05-29T14:57:41.392Z,69.20
2019-05-29T15:00:23.118Z,69.70
2019-05-29T15:02:43.757Z,71.90
2019-05-29T15:05:14.697Z,71.30
2019-05-29T15:07:43.346Z,72.80
2019-05-29T15:10:25.204Z,74.30
2019-05-29T15:12:42.999Z,71.80
2019-05-29T15:15:14.220Z,71.00
2019-05-29T15:17:42.946Z,70.50
2019-05-29T15:20:14.428Z,72.60
2019-05-29T15:22:43.304Z,72.60
2019-05-29T15:25:22.965Z,73.10
2019-05-29T15:27:43.090Z,73.20
2019-05-29T15:30:16.198Z,71.50
2019-05-29T15:32:42.741Z,71.90
2019-05-29T15:35:16.022Z,71.70
2019-05-29T15:37:42.769Z,72.60
2019-05-29T15:40:12.843Z,71.60
2019-05-29T15:42:42.174Z,72.30
2019-05-29T15:45:14.245Z,72.30
2019-05-29T15:47:43.052Z,72.50
2019-05-29T15:50:13.664Z,72.90
2019-05-29T15:52:43.265Z,72.60
2019-05-29T15:55:29.775Z,72.50
2019-05-29T15:57:43.953Z,73.80
2019-05-29T16:00:15.648Z,74.00
2019-05-29T16:02:48.279Z,73.00
2019-05-29T16:05:17.222Z,73.50
2019-05-29T16:07:46.518Z,74.50
2019-05-29T16:10:18.518Z,75.10
2019-05-29T16:12:46.362Z,75.10
2019-05-29T16:15:17.465Z,75.90
2019-05-29T16:17:46.758Z,77.20
2019-05-29T16:20:16.446Z,77.70
2019-05-29T16:22:45.355Z,78.00
2019-05-29T16:25:17.003Z,77.50
2019-05-29T16:27:46.083Z,78.20
2019-05-29T16:30:17.789Z,78.90
2019-05-29T16:32:46.995Z,81.40
2019-05-29T16:35:17.173Z,82.00
2019-05-29T16:37:46.152Z,80.80
2019-05-29T16:40:18.185Z,81.90
2019-05-29T16:42:47.474Z,82.70
2019-05-29T16:45:18.298Z,83.20
2019-05-29T16:47:47.583Z,84.40
2019-05-29T16:50:19.379Z,85.20
2019-05-29T16:52:48.865Z,84.30
2019-05-29T16:55:19.332Z,84.40
2019-05-29T16:57:48.385Z,86.30
2019-05-29T17:00:17.697Z,84.50
2019-05-29T17:02:46.733Z,85.00
2019-05-29T17:05:15.861Z,84.00
2019-05-29T17:07:45.020Z,84.60
2019-05-29T17:10:14.473Z,85.00
2019-05-29T17:12:43.316Z,86.10
2019-05-29T17:15:15.066Z,85.80
2019-05-29T17:17:44.117Z,86.40
2019-05-29T17:20:15.064Z,87.60
2019-05-29T17:22:43.887Z,86.30
2019-05-29T17:25:12.953Z,88.60
2019-05-29T17:27:41.769Z,89.40
2019-05-29T17:30:10.908Z,88.10
2019-05-29T17:32:39.761Z,88.50
2019-05-29T17:35:09.086Z,89.30
2019-05-29T17:37:38.553Z,89.20
2019-05-29T17:40:08.583Z,89.20
2019-05-29T17:42:37.413Z,89.60
2019-05-29T17:45:09.623Z,90.10
2019-05-29T17:47:39.375Z,90.40
2019-05-29T17:50:08.723Z,90.10
2019-05-29T17:52:37.810Z,90.50
2019-05-29T17:55:08.045Z,90.10
2019-05-29T17:57:36.915Z,89.80
2019-05-29T18:00:12.713Z,90.40
2019-05-29T18:02:51.514Z,90.60
2019-05-29T18:05:12.055Z,90.30
2019-05-29T18:07:40.905Z,91.00
2019-05-29T18:10:11.552Z,91.40
2019-05-29T18:12:40.373Z,91.10
2019-05-29T18:15:10.470Z,91.20
2019-05-29T18:17:39.298Z,91.30
2019-05-29T18:20:14.039Z,91.60
2019-05-29T18:22:40.578Z,91.80
2019-05-29T18:25:10.085Z,92.10
2019-05-29T18:27:38.952Z,92.20
2019-05-29T18:30:09.925Z,92.20
2019-05-29T18:32:38.817Z,92.30
2019-05-29T18:35:08.836Z,92.20
2019-05-29T18:37:38.761Z,92.50
2019-05-29T18:40:12.275Z,92.20
2019-05-29T18:42:39.105Z,92.80
2019-05-29T18:45:20.494Z,92.50
2019-05-29T18:47:39.306Z,92.10
2019-05-29T18:50:09.914Z,92.10
2019-05-29T18:52:38.802Z,92.70
2019-05-29T18:55:08.510Z,93.00
2019-05-29T18:57:37.348Z,92.80
2019-05-29T19:00:11.101Z,93.10
2019-05-29T19:02:39.972Z,92.60
2019-05-29T19:05:09.208Z,92.70
2019-05-29T19:07:38.104Z,92.90
2019-05-29T19:10:08.351Z,92.90
2019-05-29T19:12:37.185Z,92.80
2019-05-29T19:15:07.206Z,92.40
2019-05-29T19:17:36.033Z,92.60
2019-05-29T19:20:06.739Z,92.60
2019-05-29T19:22:35.573Z,93.00
2019-05-29T19:25:06.534Z,93.40
2019-05-29T19:27:41.542Z,92.00
2019-05-29T19:30:13.083Z,92.10
2019-05-29T19:32:41.961Z,92.30
2019-05-29T19:35:10.967Z,92.40
2019-05-29T19:37:39.860Z,92.40
2019-05-29T19:40:09.695Z,92.20
2019-05-29T19:42:38.528Z,92.10
2019-05-29T19:45:09.556Z,92.30
2019-05-29T19:47:38.389Z,92.30
2019-05-29T19:50:11.187Z,92.50
2019-05-29T19:52:39.359Z,92.50
2019-05-29T19:55:09.801Z,92.80
2019-05-29T19:57:55.148Z,93.30
2019-05-29T20:00:10.809Z,93.60
2019-05-29T20:02:40.388Z,93.10
2019-05-29T20:05:09.615Z,92.70
2019-05-29T20:07:38.513Z,92.40
2019-05-29T20:10:09.525Z,91.80
2019-05-29T20:12:38.377Z,91.80
2019-05-29T20:15:08.139Z,91.70
2019-05-29T20:17:36.963Z,92.20
2019-05-29T20:20:07.074Z,91.60
2019-05-29T20:22:36.908Z,91.20
2019-05-29T20:25:08.428Z,91.10
2019-05-29T20:27:38.335Z,90.80
2019-05-29T20:30:10.416Z,91.00
2019-05-29T20:32:39.367Z,91.40
2019-05-29T20:35:08.228Z,91.10
2019-05-29T20:37:38.224Z,91.30
2019-05-29T20:40:08.206Z,90.80
2019-05-29T20:42:37.016Z,90.50
2019-05-29T20:45:07.805Z,90.20
2019-05-29T20:47:37.837Z,90.40
2019-05-29T20:50:08.455Z,90.40
2019-05-29T20:52:37.455Z,90.00
2019-05-29T20:55:07.682Z,89.80
2019-05-29T20:57:37.874Z,90.00
2019-05-29T21:00:12.089Z,90.10
2019-05-29T21:02:42.336Z,90.00
2019-05-29T21:05:11.841Z,90.10
2019-05-29T21:07:40.951Z,90.10
2019-05-29T21:10:12.433Z,90.50
2019-05-29T21:12:44.342Z,90.60
2019-05-29T21:15:11.969Z,90.60
2019-05-29T21:17:41.995Z,90.80
2019-05-29T21:20:11.783Z,90.90
2019-05-29T21:22:40.709Z,90.90
2019-05-29T21:25:14.968Z,90.80
2019-05-29T21:27:43.837Z,90.90
2019-05-29T21:30:11.640Z,91.00
2019-05-29T21:32:41.816Z,91.00
2019-05-29T21:35:11.572Z,91.00
2019-05-29T21:37:40.457Z,91.10
2019-05-29T21:40:09.787Z,91.20
2019-05-29T21:42:38.661Z,91.20
2019-05-29T21:45:07.704Z,91.30
2019-05-29T21:47:37.068Z,91.30
2019-05-29T21:50:07.641Z,91.40
2019-05-29T21:52:37.549Z,91.50
2019-05-29T21:55:08.144Z,91.40
2019-05-29T21:57:37.753Z,91.50
2019-05-29T22:00:11.624Z,91.50
2019-05-29T22:02:40.442Z,91.50
2019-05-29T22:05:10.314Z,91.50
2019-05-29T22:07:39.149Z,91.40
2019-05-29T22:10:08.077Z,91.50
2019-05-29T22:12:36.921Z,91.70
2019-05-29T22:15:07.989Z,91.70
2019-05-29T22:17:36.833Z,91.70
2019-05-29T22:20:07.340Z,91.70
2019-05-29T22:22:36.186Z,91.90
2019-05-29T22:25:07.387Z,91.90
2019-05-29T22:27:37.278Z,92.00
2019-05-29T22:30:06.897Z,91.90
2019-05-29T22:32:35.749Z,92.00
2019-05-29T22:35:06.066Z,91.90
2019-05-29T22:37:34.918Z,92.00
2019-05-29T22:40:06.070Z,92.20
2019-05-29T22:42:34.891Z,92.30
2019-05-29T22:45:04.890Z,92.40
2019-05-29T22:47:33.733Z,92.40
2019-05-29T22:50:02.563Z,92.50
2019-05-29T22:52:31.450Z,92.40
2019-05-29T22:55:00.296Z,92.40
2019-05-29T22:57:29.116Z,92.40
2019-05-29T22:59:58.013Z,92.50
2019-05-29T23:02:26.833Z,92.40
2019-05-29T23:04:56.202Z,92.50
2019-05-29T23:07:25.248Z,92.50
2019-05-29T23:09:54.270Z,92.70
2019-05-29T23:12:23.258Z,92.60
2019-05-29T23:14:56.325Z,92.60
2019-05-29T23:17:27.938Z,92.60
2019-05-29T23:19:58.564Z,92.70
2019-05-29T23:22:28.180Z,92.70
2019-05-29T23:24:58.715Z,92.70
2019-05-29T23:27:28.197Z,92.80
2019-05-29T23:29:59.001Z,92.90
2019-05-29T23:32:28.094Z,92.90
2019-05-29T23:34:57.177Z,93.00
2019-05-29T23:37:26.085Z,92.90
2019-05-29T23:39:55.075Z,92.90
2019-05-29T23:42:23.977Z,92.90
2019-05-29T23:44:53.963Z,93.10
2019-05-29T23:47:23.336Z,93.10
2019-05-29T23:49:53.363Z,93.20
2019-05-29T23:52:22.515Z,93.20
2019-05-29T23:55:10.854Z,93.30
2019-05-29T23:57:39.706Z,93.40
